Snoqualmie River: North Fork station

back to: Snoqualmie river
North Fork station Summary - (NOAA Hydrograph: SNQW1)
Latest reading:
Wed06/19 04:15 pm 2.42 ft 145 cfs (+8/hr)
Past 24hr max:
Tue06/18 04:30 pm 2.45 ft 151 cfs
Forecasted crests: (published Wed 06/19/19 07:58 am)
Thu06/20 11:00 am 2.94 ft 269 cfs
Wed06/26 05:00 pm 2.8 ft 232 cfs
Thu06/27 11:00 pm 2.77 ft 224 cfs

North Fork station Details

Latest Readings

Last 100 Readings:
Wed06/19 04:15 pm 2.42 ft 145 cfs
Wed06/19 04:00 pm 2.41 ft 143 cfs
Wed06/19 03:45 pm 2.42 ft 145 cfs
Wed06/19 03:30 pm 2.42 ft 145 cfs
Wed06/19 03:15 pm 2.42 ft 145 cfs
Wed06/19 03:00 pm 2.42 ft 145 cfs
Wed06/19 02:45 pm 2.42 ft 145 cfs
Wed06/19 02:30 pm 2.42 ft 145 cfs
Wed06/19 02:15 pm 2.42 ft 145 cfs
Wed06/19 02:00 pm 2.42 ft 145 cfs
Wed06/19 01:45 pm 2.42 ft 145 cfs
Wed06/19 01:30 pm 2.42 ft 145 cfs
Wed06/19 01:15 pm 2.43 ft 147 cfs
Wed06/19 01:00 pm 2.42 ft 145 cfs
Wed06/19 12:45 pm 2.43 ft 147 cfs
Wed06/19 12:30 pm 2.43 ft 147 cfs
Wed06/19 12:15 pm 2.42 ft 145 cfs
Wed06/19 12:00 pm 2.42 ft 145 cfs
Wed06/19 11:45 am 2.43 ft 147 cfs
Wed06/19 11:30 am 2.43 ft 147 cfs
Wed06/19 11:15 am 2.42 ft 145 cfs
Wed06/19 11:00 am 2.43 ft 147 cfs
Wed06/19 10:45 am 2.43 ft 147 cfs
Wed06/19 10:30 am 2.43 ft 147 cfs
Wed06/19 10:15 am 2.43 ft 147 cfs
Wed06/19 10:00 am 2.42 ft 145 cfs
Wed06/19 09:45 am 2.43 ft 147 cfs
Wed06/19 09:30 am 2.43 ft 147 cfs
Wed06/19 09:15 am 2.43 ft 147 cfs
Wed06/19 09:00 am 2.43 ft 147 cfs
Wed06/19 08:45 am 2.43 ft 147 cfs
Wed06/19 08:30 am 2.43 ft 147 cfs
Wed06/19 08:15 am 2.43 ft 147 cfs
Wed06/19 08:00 am 2.43 ft 147 cfs
Wed06/19 07:45 am 2.43 ft 147 cfs
Wed06/19 07:30 am 2.43 ft 147 cfs
Wed06/19 07:15 am 2.43 ft 147 cfs
Wed06/19 07:00 am 2.43 ft 147 cfs
Wed06/19 06:45 am 2.43 ft 147 cfs
Wed06/19 06:30 am 2.43 ft 147 cfs
Wed06/19 06:15 am 2.43 ft 147 cfs
Wed06/19 06:00 am 2.43 ft 147 cfs
Wed06/19 05:45 am 2.43 ft 147 cfs
Wed06/19 05:30 am 2.43 ft 147 cfs
Wed06/19 05:15 am 2.43 ft 147 cfs
Wed06/19 05:00 am 2.43 ft 147 cfs
Wed06/19 04:45 am 2.43 ft 147 cfs
Wed06/19 04:30 am 2.43 ft 147 cfs
Wed06/19 04:15 am 2.43 ft 147 cfs
Wed06/19 04:00 am 2.43 ft 147 cfs
Wed06/19 03:45 am 2.43 ft 147 cfs
Wed06/19 03:30 am 2.43 ft 147 cfs
Wed06/19 03:15 am 2.43 ft 147 cfs
Wed06/19 03:00 am 2.43 ft 147 cfs
Wed06/19 02:45 am 2.43 ft 147 cfs
Wed06/19 02:30 am 2.43 ft 147 cfs
Wed06/19 02:15 am 2.43 ft 147 cfs
Wed06/19 02:00 am 2.44 ft 149 cfs
Wed06/19 01:45 am 2.44 ft 149 cfs
Wed06/19 01:30 am 2.43 ft 147 cfs
Wed06/19 01:15 am 2.44 ft 149 cfs
Wed06/19 01:00 am 2.44 ft 149 cfs
Wed06/19 12:45 am 2.44 ft 149 cfs
Wed06/19 12:30 am 2.44 ft 149 cfs
Wed06/19 12:15 am 2.44 ft 149 cfs
Wed06/19 12:00 am 2.44 ft 149 cfs
Tue06/18 11:45 pm 2.44 ft 149 cfs
Tue06/18 11:30 pm 2.44 ft 149 cfs
Tue06/18 11:15 pm 2.44 ft 149 cfs
Tue06/18 11:00 pm 2.44 ft 149 cfs
Tue06/18 10:45 pm 2.44 ft 149 cfs
Tue06/18 10:30 pm 2.44 ft 149 cfs
Tue06/18 10:15 pm 2.44 ft 149 cfs
Tue06/18 10:00 pm 2.44 ft 149 cfs
Tue06/18 09:45 pm 2.44 ft 149 cfs
Tue06/18 09:30 pm 2.44 ft 149 cfs
Tue06/18 09:15 pm 2.44 ft 149 cfs
Tue06/18 09:00 pm 2.44 ft 149 cfs
Tue06/18 08:45 pm 2.44 ft 149 cfs
Tue06/18 08:30 pm 2.44 ft 149 cfs
Tue06/18 08:15 pm 2.44 ft 149 cfs
Tue06/18 08:00 pm 2.44 ft 149 cfs
Tue06/18 07:45 pm 2.43 ft 147 cfs
Tue06/18 07:30 pm 2.44 ft 149 cfs
Tue06/18 07:15 pm 2.43 ft 147 cfs
Tue06/18 07:00 pm 2.44 ft 149 cfs
Tue06/18 06:45 pm 2.43 ft 147 cfs
Tue06/18 06:30 pm 2.44 ft 149 cfs
Tue06/18 06:15 pm 2.44 ft 149 cfs
Tue06/18 06:00 pm 2.44 ft 149 cfs
Tue06/18 05:45 pm 2.44 ft 149 cfs
Tue06/18 05:30 pm 2.44 ft 149 cfs
Tue06/18 05:15 pm 2.44 ft 149 cfs
Tue06/18 05:00 pm 2.45 ft 151 cfs
Tue06/18 04:45 pm 2.44 ft 149 cfs
Tue06/18 04:30 pm 2.45 ft 151 cfs
Tue06/18 04:15 pm 2.44 ft 149 cfs
Tue06/18 04:00 pm 2.44 ft 149 cfs
Tue06/18 03:45 pm 2.45 ft 151 cfs
Tue06/18 03:30 pm 2.45 ft 151 cfs

Latest Forecasts

Currently Forecasted Readings:
Wed06/19 11:00 am 2.42 ft 145 cfs
Wed06/19 05:00 pm 2.45 ft 152 cfs
Wed06/19 11:00 pm 2.69 ft 204 cfs
Thu06/20 05:00 am 2.9 ft 258 cfs
Thu06/20 11:00 am 2.94 ft 269 cfs
Thu06/20 05:00 pm 2.91 ft 260 cfs
Thu06/20 11:00 pm 2.77 ft 224 cfs
Fri06/21 05:00 am 2.72 ft 210 cfs
Fri06/21 11:00 am 2.66 ft 197 cfs
Fri06/21 05:00 pm 2.62 ft 188 cfs
Fri06/21 11:00 pm 2.59 ft 181 cfs
Sat06/22 05:00 am 2.57 ft 176 cfs
Sat06/22 11:00 am 2.55 ft 172 cfs
Sat06/22 05:00 pm 2.53 ft 168 cfs
Sat06/22 11:00 pm 2.52 ft 166 cfs
Sun06/23 05:00 am 2.52 ft 165 cfs
Sun06/23 11:00 am 2.51 ft 163 cfs
Sun06/23 05:00 pm 2.5 ft 161 cfs
Sun06/23 11:00 pm 2.49 ft 159 cfs
Mon06/24 05:00 am 2.48 ft 157 cfs
Mon06/24 11:00 am 2.47 ft 155 cfs
Mon06/24 05:00 pm 2.46 ft 152 cfs
Mon06/24 11:00 pm 2.44 ft 148 cfs
Tue06/25 05:00 am 2.42 ft 145 cfs
Tue06/25 11:00 am 2.4 ft 141 cfs
Tue06/25 05:00 pm 2.47 ft 155 cfs
Tue06/25 11:00 pm 2.62 ft 187 cfs
Wed06/26 05:00 am 2.74 ft 217 cfs
Wed06/26 11:00 am 2.77 ft 223 cfs
Wed06/26 05:00 pm 2.8 ft 232 cfs
Wed06/26 11:00 pm 2.8 ft 232 cfs
Thu06/27 05:00 am 2.71 ft 210 cfs
Thu06/27 11:00 am 2.69 ft 203 cfs
Thu06/27 05:00 pm 2.72 ft 211 cfs
Thu06/27 11:00 pm 2.77 ft 224 cfs
Fri06/28 05:00 am 2.71 ft 209 cfs
Fri06/28 11:00 am 2.66 ft 197 cfs
Fri06/28 05:00 pm 2.68 ft 201 cfs
Fri06/28 11:00 pm 2.68 ft 202 cfs
Sat06/29 05:00 am 2.69 ft 204 cfs

Snoqualmie River flood gauge data supplied by the
National Weather Service Northwest River Forecast Center.

Sign up for Floodzilla alerts.